Pagrindinis puslapis
METAR-TAF:

METAR-TAF

Oro uostai :

Karup, Danija

platuma: 56-18N, ilguma: 009-07E, Aukštis: 52 m

Dabartinis oras

Ataskaita buvo paskelbta 27 minutes, ne 11:20 UTC
Vėjas 12 kt iš Pietų/Pietvakarių, svyruoja nuo Pietų/Pietryčių ir Vakarų/Pietvakarių
Temperatūra 21°C
Drėgmė 56%
Slėgis 1022 hPa
Matomumas 10 km arba daugiau

METAR: EKKA 221120Z AUTO 20012KT 160V240 9999 FEW041/// BKN140/// 21/12 Q1022 TEMPO 21015G25KT

Laikas: 13:47 (11:47 UTC)

Prognozė

Ataskaita buvo paskelbta 28 minutes, ne 11:19 UTC
Prognozė galioja nuo 22 metu 12 UTC su 23 metu 12 UTC
Vėjas 12 kt iš Pietų/Pietvakarių
Matomumas 10 km arba daugiau
Išsisklaidę debesys ne aukštis 3000 ft
Su prošvaistėmis ne aukštis 15000 ft
Laikinai
nuo 22 metu 12 UTC su 22 metu 18 UTC
Vėjas 15 kt iš Pietų/Pietvakarių su gūsio iki 25 kt
Laikinai
nuo 22 metu 19 UTC su 23 metu 06 UTC
Matomumas: 7000 m
Su prošvaistėmis ne aukštis 1200 ft

TAF: EKKA 221119Z 2212/2312 20012KT 9999 SCT030 BKN150 TEMPO 2212/2218 21015G25KT TEMPO 2219/2306 7000 BKN012

Orai ataskaitas ir orų prognozės (METAR, TAF).

turimą stotys yra geltonos ir raudonos taškus žemėlapyje.

Perkelti pele per norėdami pamatyti stoties vardą.

Tada spustelėkite, norėdami matyti oro stebėjimo ir prognozės.

Norėdami pakeisti žemėlapį: spustelėkite ant žalios mygtukų su juodo kryžiaus žemyn,; žalią mygtuką su brūkšneliu, jei norite nutolinti; arba žalių rodyklių gretimoms žemėlapius.


METAR-TAF: